Time;durP1;ratioP1;P1;durP2;ratioP2;P2;SDS_P1;SDS_P2;PMS_P1;PMS_P2;Temp;Humidity;BMP_temperature;BMP_pressure;BME280_temperature;BME280_humidity;BME280_pressure;Samples;Min_cycle;Max_cycle;Signal;HPM_P1;HPM_P2
2022/12/12 00:00:45;;;;;;;28.40;13.60;;;;;;;-3.26;100.00;98225.33;101935;1375;22360;-34
2022/12/12 00:03:11;;;;;;;23.80;12.70;;;;;;;-3.27;100.00;98227.14;102059;1376;22524;-30
2022/12/12 00:05:37;;;;;;;22.70;11.40;;;;;;;-3.26;100.00;98223.73;102053;1359;22632;-30
2022/12/12 00:08:03;;;;;;;26.10;12.80;;;;;;;-3.34;100.00;98222.09;101997;1373;22296;-30
2022/12/12 00:10:28;;;;;;;24.70;13.00;;;;;;;-3.33;100.00;98218.53;102031;1356;22782;-30
2022/12/12 00:12:54;;;;;;;23.20;10.30;;;;;;;-3.32;100.00;98220.34;102025;1356;22720;-33
2022/12/12 00:15:20;;;;;;;21.80;10.60;;;;;;;-3.37;100.00;98215.60;101990;1356;22464;-34
2022/12/12 00:17:45;;;;;;;24.10;11.10;;;;;;;-3.34;100.00;98214.44;101983;1358;22614;-34
2022/12/12 00:20:11;;;;;;;18.50;9.70;;;;;;;-3.33;100.00;98213.97;102085;1365;22247;-34
2022/12/12 00:22:36;;;;;;;17.50;9.30;;;;;;;-3.30;100.00;98217.56;102049;1357;22270;-30
2022/12/12 00:25:02;;;;;;;20.20;9.30;;;;;;;-3.28;100.00;98218.14;102021;1359;22129;-31
2022/12/12 00:27:30;;;;;;;18.30;8.50;;;;;;;-3.25;100.00;98221.52;101936;1365;22842;-33
2022/12/12 00:29:56;;;;;;;18.60;10.10;;;;;;;-3.28;100.00;98219.83;101809;1356;22326;-29
2022/12/12 00:32:21;;;;;;;26.90;12.20;;;;;;;-3.29;100.00;98223.29;101997;1359;22616;-33
2022/12/12 00:34:47;;;;;;;23.50;11.90;;;;;;;-3.26;100.00;98226.54;102048;1376;22258;-33
2022/12/12 00:37:12;;;;;;;19.00;7.80;;;;;;;-3.29;100.00;98231.87;101898;1356;22284;-33
2022/12/12 00:39:37;;;;;;;24.30;13.00;;;;;;;-3.28;100.00;98232.14;102028;1356;22412;-30
2022/12/12 00:42:03;;;;;;;25.40;14.30;;;;;;;-3.29;100.00;98235.38;101811;1359;22285;-29
2022/12/12 00:44:29;;;;;;;15.90;6.70;;;;;;;-3.23;100.00;98233.42;102028;1377;22281;-29
2022/12/12 00:46:54;;;;;;;27.50;12.10;;;;;;;-3.22;100.00;98234.55;102105;1356;22298;-33
2022/12/12 00:49:20;;;;;;;16.20;9.00;;;;;;;-3.29;100.00;98228.19;102124;1359;22679;-34
2022/12/12 00:51:46;;;;;;;17.20;10.40;;;;;;;-3.28;100.00;98235.80;102026;1356;22555;-33
2022/12/12 00:54:11;;;;;;;14.10;7.40;;;;;;;-3.27;100.00;98235.58;102030;1365;22320;-30
2022/12/12 00:56:38;;;;;;;11.30;6.90;;;;;;;-3.30;100.00;98237.38;101999;1375;22621;-30
2022/12/12 00:59:03;;;;;;;13.20;6.80;;;;;;;-3.27;100.00;98237.40;101212;1377;22666;-29
2022/12/12 01:01:29;;;;;;;15.00;8.00;;;;;;;-3.24;100.00;98237.73;101369;1357;22250;-34
2022/12/12 01:03:55;;;;;;;18.40;9.90;;;;;;;-3.21;100.00;98236.35;101978;1356;22655;-29
2022/12/12 01:06:20;;;;;;;27.20;14.80;;;;;;;-3.35;100.00;98237.95;101852;1365;22295;-30
2022/12/12 01:08:46;;;;;;;25.80;12.70;;;;;;;-3.32;100.00;98238.92;102062;1358;22610;-36
2022/12/12 01:11:12;;;;;;;20.10;11.00;;;;;;;-3.31;100.00;98236.41;102042;1356;22463;-30
2022/12/12 01:13:37;;;;;;;14.70;7.40;;;;;;;-3.36;100.00;98237.17;102011;1359;22240;-30
2022/12/12 01:16:04;;;;;;;16.20;8.80;;;;;;;-3.31;100.00;98240.23;101230;1359;22645;-33
2022/12/12 01:18:31;;;;;;;20.40;10.10;;;;;;;-3.36;100.00;98236.49;102098;1356;22753;-33
2022/12/12 01:20:56;;;;;;;18.00;10.00;;;;;;;-3.38;100.00;98234.88;101998;1371;22290;-31
2022/12/12 01:23:22;;;;;;;18.90;9.60;;;;;;;-3.20;100.00;98232.95;101995;1375;22293;-34
2022/12/12 01:25:47;;;;;;;13.20;8.00;;;;;;;-3.19;100.00;98235.85;101990;1375;22180;-29
2022/12/12 01:28:13;;;;;;;21.60;6.80;;;;;;;-3.18;100.00;98230.35;102036;1359;22344;-33
2022/12/12 01:30:39;;;;;;;21.30;10.20;;;;;;;-3.26;100.00;98227.56;102014;1372;22463;-29
2022/12/12 01:33:04;;;;;;;8.30;6.50;;;;;;;-3.29;100.00;98236.21;102011;1372;22403;-30
2022/12/12 01:35:30;;;;;;;7.60;4.60;;;;;;;-3.16;100.00;98228.98;102017;1366;22266;-30
2022/12/12 01:37:56;;;;;;;12.00;5.90;;;;;;;-3.15;100.00;98227.30;102040;1372;22421;-30
2022/12/12 01:40:24;;;;;;;17.70;8.70;;;;;;;-3.23;100.00;98228.37;101588;1356;22587;-34
2022/12/12 01:42:49;;;;;;;11.10;5.70;;;;;;;-3.16;100.00;98226.63;102038;1356;22323;-32
2022/12/12 01:45:22;;;;;;;12.50;7.50;;;;;;;-3.27;100.00;98222.20;101994;1359;22769;-33
2022/12/12 01:47:48;;;;;;;28.70;9.70;;;;;;;-3.22;100.00;98221.61;101608;1376;22648;-29
2022/12/12 01:50:13;;;;;;;28.00;13.20;;;;;;;-3.11;100.00;98220.92;102067;1366;22326;-30
2022/12/12 01:52:42;;;;;;;31.80;11.40;;;;;;;-3.15;100.00;98218.38;101945;1359;22338;-32
2022/12/12 01:55:10;;;;;;;20.30;11.70;;;;;;;-3.18;100.00;98221.46;102119;1356;22636;-30
2022/12/12 01:57:37;;;;;;;26.40;13.60;;;;;;;-3.16;100.00;98218.91;102043;1352;22618;-34
2022/12/12 02:00:04;;;;;;;11.90;6.60;;;;;;;-3.17;100.00;98218.89;102013;1356;22151;-34
2022/12/12 02:02:30;;;;;;;20.20;13.70;;;;;;;-3.13;100.00;98216.61;101846;1359;22492;-34
2022/12/12 02:04:55;;;;;;;18.40;12.20;;;;;;;-3.10;100.00;98211.55;101949;1359;22625;-34
2022/12/12 02:07:21;;;;;;;23.80;9.40;;;;;;;-3.05;100.00;98208.68;101993;1359;22611;-34
2022/12/12 02:09:46;;;;;;;19.10;10.10;;;;;;;-3.09;100.00;98209.62;102147;1352;22479;-34
2022/12/12 02:12:13;;;;;;;18.20;9.50;;;;;;;-3.06;100.00;98207.54;102056;1356;22674;-30
2022/12/12 02:14:41;;;;;;;44.20;16.10;;;;;;;-3.05;100.00;98209.86;101954;1356;22352;-34
2022/12/12 02:17:11;;;;;;;31.60;14.40;;;;;;;-3.25;100.00;98217.34;102042;1359;22257;-30
2022/12/12 02:19:51;;;;;;;32.70;13.10;;;;;;;-3.29;100.00;98216.30;102023;1356;22449;-34
2022/12/12 02:22:24;;;;;;;34.90;16.20;;;;;;;-3.33;100.00;98221.65;102042;1358;22579;-34
2022/12/12 02:24:55;;;;;;;43.20;16.80;;;;;;;-3.32;100.00;98227.41;102029;1360;22871;-34
2022/12/12 02:27:26;;;;;;;28.40;14.70;;;;;;;-3.33;100.00;98227.34;102099;1367;22459;-34
2022/12/12 02:30:04;;;;;;;25.80;13.40;;;;;;;-3.37;100.00;98232.75;101980;1356;22649;-30
2022/12/12 02:32:46;;;;;;;37.50;16.80;;;;;;;-3.29;100.00;98234.80;101616;1360;22570;-31
2022/12/12 02:35:18;;;;;;;41.10;13.70;;;;;;;-3.37;100.00;98230.27;102031;1375;22624;-34
2022/12/12 02:37:48;;;;;;;30.30;12.70;;;;;;;-3.29;100.00;98233.06;102015;1375;22983;-34
2022/12/12 02:40:21;;;;;;;29.60;12.00;;;;;;;-3.28;100.00;98239.08;102001;1374;22187;-34
2022/12/12 02:42:49;;;;;;;29.50;13.80;;;;;;;-3.21;100.00;98237.29;101989;1356;22265;-31
2022/12/12 02:45:17;;;;;;;22.70;10.80;;;;;;;-3.25;100.00;98237.48;102007;1358;22598;-30
2022/12/12 02:47:47;;;;;;;29.90;11.70;;;;;;;-3.16;100.00;98235.96;102010;1356;22608;-30
2022/12/12 02:50:15;;;;;;;33.20;14.00;;;;;;;-3.21;100.00;98231.15;102045;1356;22980;-30
2022/12/12 02:52:42;;;;;;;24.00;12.70;;;;;;;-3.18;100.00;98229.27;102040;1349;22487;-30
2022/12/12 02:55:08;;;;;;;36.70;12.80;;;;;;;-3.12;100.00;98231.88;102098;1356;22162;-34
2022/12/12 02:57:34;;;;;;;35.70;16.20;;;;;;;-3.13;100.00;98230.91;102009;1359;22716;-31
2022/12/12 03:00:07;;;;;;;28.60;13.70;;;;;;;-3.17;100.00;98223.76;102111;1365;22317;-30
2022/12/12 03:02:45;;;;;;;14.30;9.60;;;;;;;-3.15;100.00;98220.08;101886;1377;23033;-33
2022/12/12 03:07:56;;;;;;;25.10;14.40;;;;;;;-3.10;100.00;98215.72;102131;1359;22443;-34
2022/12/12 03:10:25;;;;;;;14.30;8.00;;;;;;;-3.17;100.00;98220.77;102058;1377;22301;-30
2022/12/12 03:12:59;;;;;;;31.10;14.90;;;;;;;-3.12;100.00;98221.17;102045;1356;22261;-29
2022/12/12 03:15:28;;;;;;;21.70;10.80;;;;;;;-3.11;100.00;98225.85;102060;1356;22444;-34
2022/12/12 03:17:59;;;;;;;21.70;10.90;;;;;;;-3.07;100.00;98228.14;102002;1368;22348;-35
2022/12/12 03:20:26;;;;;;;;;;;;;;;-3.02;100.00;98224.58;101703;1368;22589;-29
2022/12/12 03:22:55;;;;;;;31.30;15.00;;;;;;;-3.05;100.00;98224.95;102045;1373;22370;-33
2022/12/12 03:25:25;;;;;;;25.10;10.60;;;;;;;-3.00;100.00;98219.39;101982;1356;22206;-30
2022/12/12 03:27:56;;;;;;;34.80;14.80;;;;;;;-3.03;100.00;98220.59;101998;1359;24118;-29
2022/12/12 03:30:21;;;;;;;26.60;13.60;;;;;;;-3.01;100.00;98220.05;102058;1356;22727;-30
2022/12/12 03:32:52;;;;;;;32.30;11.60;;;;;;;-3.09;100.00;98214.15;101550;1366;22604;-33
2022/12/12 03:35:23;;;;;;;30.90;14.30;;;;;;;-3.03;100.00;98210.96;102060;1356;22253;-30
2022/12/12 03:37:52;;;;;;;27.50;13.50;;;;;;;-2.99;100.00;98213.69;102057;1356;22307;-34
2022/12/12 03:40:23;;;;;;;27.10;13.40;;;;;;;-2.93;100.00;98212.47;101713;1356;484566;-30
2022/12/12 03:42:58;;;;;;;34.00;15.40;;;;;;;-3.00;100.00;98211.73;102025;1359;22389;-34
2022/12/12 03:45:31;;;;;;;29.30;12.90;;;;;;;-3.01;100.00;98210.24;102064;1375;22318;-34
2022/12/12 03:48:03;;;;;;;40.50;17.00;;;;;;;-2.98;100.00;98212.81;102114;1375;22775;-30
2022/12/12 03:50:31;;;;;;;31.10;11.90;;;;;;;-3.03;100.00;98214.77;102020;1372;22253;-30
2022/12/12 03:53:02;;;;;;;23.30;14.20;;;;;;;-3.02;100.00;98213.29;102095;1357;22598;-30
2022/12/12 03:55:29;;;;;;;35.10;15.00;;;;;;;-2.97;100.00;98212.64;101977;1375;22290;-34
2022/12/12 03:57:59;;;;;;;19.50;8.70;;;;;;;-2.94;100.00;98216.73;102021;1376;22687;-31
2022/12/12 04:00:24;;;;;;;14.90;8.90;;;;;;;-2.91;100.00;98218.96;102024;1375;22564;-30
2022/12/12 04:02:55;;;;;;;22.70;11.60;;;;;;;-2.91;100.00;98216.84;101953;1362;22605;-33
2022/12/12 04:05:24;;;;;;;22.60;11.40;;;;;;;-3.00;100.00;98216.96;101984;1356;22164;-34
2022/12/12 04:07:55;;;;;;;35.20;16.30;;;;;;;-2.80;100.00;98210.94;102042;1371;22288;-33
2022/12/12 04:12:59;;;;;;;27.90;13.40;;;;;;;-2.84;100.00;98209.06;102053;1357;22318;-30
2022/12/12 04:15:32;;;;;;;34.50;14.10;;;;;;;-2.89;100.00;98206.64;101961;1375;22451;-30
2022/12/12 04:18:01;;;;;;;32.90;15.40;;;;;;;-2.88;100.00;98204.30;102078;1356;22469;-33
2022/12/12 04:23:14;;;;;;;30.60;15.40;;;;;;;-2.92;100.00;98205.04;102068;1355;22616;-30
2022/12/12 04:28:15;;;;;;;22.70;10.60;;;;;;;-2.88;100.00;98211.16;102123;1375;22477;-34
2022/12/12 04:30:40;;;;;;;17.70;11.20;;;;;;;-2.80;100.00;98211.95;102048;1358;22560;-33
2022/12/12 04:33:09;;;;;;;34.00;14.70;;;;;;;-2.82;100.00;98204.50;102032;1374;22638;-30
2022/12/12 04:35:38;;;;;;;17.40;8.70;;;;;;;-2.97;100.00;98209.33;102115;1356;22617;-30
2022/12/12 04:38:05;;;;;;;23.10;12.40;;;;;;;-2.85;100.00;98209.25;101805;1377;22124;-33
2022/12/12 04:40:33;;;;;;;33.80;14.90;;;;;;;-2.94;100.00;98211.73;102046;1372;22703;-33
2022/12/12 04:43:04;;;;;;;20.80;10.80;;;;;;;-2.99;100.00;98214.59;102059;1360;22331;-30
2022/12/12 04:45:33;;;;;;;29.60;14.10;;;;;;;-2.94;100.00;98218.67;102055;1375;22678;-33
2022/12/12 04:47:58;;;;;;;20.80;11.70;;;;;;;-2.95;100.00;98219.64;102122;1356;22540;-33
2022/12/12 04:50:24;;;;;;;33.40;17.50;;;;;;;-2.88;100.00;98216.56;102010;1359;23013;-34
2022/12/12 04:52:50;;;;;;;28.60;14.50;;;;;;;-2.99;100.00;98220.00;102094;1355;22311;-34
2022/12/12 04:55:21;;;;;;;34.80;12.90;;;;;;;-2.99;100.00;98219.51;101805;1359;22621;-35
2022/12/12 04:57:50;;;;;;;20.40;11.30;;;;;;;-2.93;100.00;98214.27;101755;1377;22693;-34
2022/12/12 05:00:16;;;;;;;28.30;13.60;;;;;;;-2.97;100.00;98216.32;102065;1356;22488;-30
2022/12/12 05:02:48;;;;;;;24.20;11.80;;;;;;;-2.91;100.00;98210.70;101932;1359;22295;-34
2022/12/12 05:05:18;;;;;;;29.60;15.10;;;;;;;-2.93;100.00;98210.92;102003;1358;22341;-34
2022/12/12 05:07:49;;;;;;;16.40;7.60;;;;;;;-2.89;100.00;98206.30;102098;1356;22315;-30
2022/12/12 05:10:16;;;;;;;17.50;10.10;;;;;;;-2.93;100.00;98206.33;101998;1357;22677;-34
2022/12/12 05:12:44;;;;;;;24.90;11.10;;;;;;;-3.03;100.00;98208.67;101962;1359;22620;-34
2022/12/12 05:15:09;;;;;;;22.30;11.70;;;;;;;-3.01;100.00;98220.25;102041;1356;22335;-30
2022/12/12 05:17:41;;;;;;;16.70;9.80;;;;;;;-3.00;100.00;98220.67;101939;1359;22627;-31
2022/12/12 05:20:08;;;;;;;25.60;12.90;;;;;;;-3.07;100.00;98220.59;102031;1356;22453;-30
2022/12/12 05:22:34;;;;;;;20.30;10.50;;;;;;;-3.05;100.00;98225.52;101998;1359;22623;-34
2022/12/12 05:25:00;;;;;;;20.40;12.40;;;;;;;-3.10;100.00;98225.45;102073;1369;22143;-30
2022/12/12 05:27:25;;;;;;;31.90;14.20;;;;;;;-3.10;100.00;98225.60;101978;1372;22412;-34
2022/12/12 05:29:51;;;;;;;6.60;4.80;;;;;;;-3.13;100.00;98231.13;102034;1356;22620;-31
2022/12/12 05:32:16;;;;;;;24.30;10.50;;;;;;;-3.05;100.00;98230.76;101995;1359;22185;-34
2022/12/12 05:34:42;;;;;;;12.60;8.40;;;;;;;-3.08;100.00;98231.54;102038;1356;23918;-34
2022/12/12 05:37:07;;;;;;;28.70;13.00;;;;;;;-3.03;100.00;98230.90;102012;1357;22314;-30
2022/12/12 05:39:33;;;;;;;23.50;11.60;;;;;;;-3.12;100.00;98231.02;102006;1359;22277;-30
2022/12/12 05:41:59;;;;;;;30.10;11.70;;;;;;;-3.13;100.00;98229.89;102012;1362;22647;-34
2022/12/12 05:44:24;;;;;;;17.90;10.50;;;;;;;-3.15;100.00;98230.41;101962;1370;22449;-34
2022/12/12 05:46:50;;;;;;;19.90;8.60;;;;;;;-3.18;100.00;98234.20;102151;1356;22379;-34
2022/12/12 05:49:15;;;;;;;16.30;7.60;;;;;;;-3.11;100.00;98235.61;101940;1358;22171;-34
2022/12/12 05:51:41;;;;;;;21.00;12.80;;;;;;;-3.07;100.00;98234.58;101983;1356;22159;-30
2022/12/12 05:54:07;;;;;;;21.70;10.90;;;;;;;-3.11;100.00;98231.44;101950;1376;22643;-30
2022/12/12 05:56:32;;;;;;;28.20;12.80;;;;;;;-3.12;100.00;98232.98;101241;1373;23093;-30
2022/12/12 05:58:58;;;;;;;13.30;7.00;;;;;;;-3.09;100.00;98235.44;101899;1356;22607;-30
2022/12/12 06:01:23;;;;;;;22.30;11.00;;;;;;;-3.12;100.00;98235.10;102018;1356;22301;-30
2022/12/12 06:03:49;;;;;;;36.10;15.60;;;;;;;-3.13;100.00;98235.52;102056;1359;22368;-34
2022/12/12 06:06:14;;;;;;;32.20;14.60;;;;;;;-3.01;100.00;98239.83;102100;1356;22748;-34
2022/12/12 06:08:40;;;;;;;17.20;9.30;;;;;;;-3.03;100.00;98231.56;102012;1352;22664;-30
2022/12/12 06:11:06;;;;;;;18.30;10.40;;;;;;;-3.01;100.00;98233.92;101986;1375;22175;-30
2022/12/12 06:13:32;;;;;;;15.10;3.30;;;;;;;-3.10;100.00;98237.33;101974;1377;22210;-29
2022/12/12 06:15:58;;;;;;;23.80;10.50;;;;;;;-3.13;100.00;98236.54;101994;1365;22600;-31
2022/12/12 06:18:24;;;;;;;12.30;8.20;;;;;;;-3.05;100.00;98240.95;101975;1359;22613;-30
2022/12/12 06:20:49;;;;;;;21.20;9.90;;;;;;;-2.85;100.00;98236.98;101833;1376;22270;-30
2022/12/12 06:23:14;;;;;;;20.90;10.10;;;;;;;-2.99;100.00;98230.40;101978;1356;23788;-30
2022/12/12 06:25:40;;;;;;;14.40;7.00;;;;;;;-3.01;100.00;98228.27;102013;1368;22717;-30
2022/12/12 06:28:06;;;;;;;13.60;8.10;;;;;;;-2.88;100.00;98230.42;101832;1359;22624;-30
2022/12/12 06:30:31;;;;;;;9.50;5.20;;;;;;;-2.85;100.00;98227.47;101959;1365;22626;-30
2022/12/12 06:32:56;;;;;;;13.80;5.60;;;;;;;-2.75;100.00;98218.34;101965;1356;22614;-30
2022/12/12 06:35:22;;;;;;;24.50;10.60;;;;;;;-2.90;100.00;98218.72;102028;1356;22641;-34
2022/12/12 06:37:48;;;;;;;19.60;6.10;;;;;;;-2.83;100.00;98225.59;101938;1375;22241;-30
2022/12/12 06:40:13;;;;;;;32.00;8.00;;;;;;;-2.78;100.00;98223.15;101936;1359;22616;-34
2022/12/12 06:42:39;;;;;;;19.20;8.70;;;;;;;-2.72;100.00;98220.33;102037;1358;22149;-34
2022/12/12 06:45:05;;;;;;;11.90;6.40;;;;;;;-2.72;100.00;98215.12;102003;1356;22319;-31
2022/12/12 06:47:32;;;;;;;18.30;8.40;;;;;;;-2.83;100.00;98212.23;101943;1365;22581;-31
2022/12/12 06:49:57;;;;;;;21.60;11.60;;;;;;;-2.76;100.00;98216.12;101951;1376;22545;-34
2022/12/12 06:52:23;;;;;;;9.60;5.30;;;;;;;-2.65;100.00;98216.52;101963;1349;22303;-34
2022/12/12 06:54:48;;;;;;;21.60;11.80;;;;;;;-2.72;100.00;98218.46;101517;1365;22704;-30
2022/12/12 06:57:14;;;;;;;30.80;11.10;;;;;;;-2.75;100.00;98218.72;101940;1359;22611;-29
2022/12/12 06:59:40;;;;;;;38.00;11.60;;;;;;;-2.83;100.00;98229.08;101986;1372;22625;-30
2022/12/12 07:02:06;;;;;;;9.50;5.00;;;;;;;-2.76;100.00;98236.13;101895;1349;22774;-30
2022/12/12 07:04:32;;;;;;;28.10;11.20;;;;;;;-2.75;100.00;98237.27;101983;1355;22606;-34
2022/12/12 07:06:57;;;;;;;32.00;12.00;;;;;;;-2.72;100.00;98240.33;102032;1349;22270;-30
2022/12/12 07:09:23;;;;;;;26.80;11.50;;;;;;;-2.68;100.00;98235.81;101482;1352;22618;-34
2022/12/12 07:11:48;;;;;;;31.50;13.30;;;;;;;-2.85;100.00;98242.09;102116;1356;22567;-33
2022/12/12 07:14:14;;;;;;;40.10;14.30;;;;;;;-2.67;100.00;98245.15;102041;1358;22703;-34
2022/12/12 07:16:40;;;;;;;16.60;9.50;;;;;;;-2.76;100.00;98241.19;101969;1349;22284;-30
2022/12/12 07:19:05;;;;;;;46.90;12.10;;;;;;;-2.78;100.00;98245.39;102026;1349;22535;-30
2022/12/12 07:21:31;;;;;;;33.70;12.10;;;;;;;-2.62;100.00;98244.11;101986;1356;22643;-30
2022/12/12 07:23:56;;;;;;;13.70;6.50;;;;;;;-2.56;100.00;98239.55;101952;1368;22448;-34
2022/12/12 07:26:22;;;;;;;56.10;15.90;;;;;;;-2.46;100.00;98236.51;101890;1349;22631;-30
2022/12/12 07:28:48;;;;;;;14.60;8.40;;;;;;;-2.64;100.00;98235.58;102139;1356;22626;-34
2022/12/12 07:31:15;;;;;;;22.10;12.40;;;;;;;-2.69;100.00;98240.89;102042;1372;22159;-31
2022/12/12 07:33:41;;;;;;;32.10;12.80;;;;;;;-2.62;100.00;98239.36;102119;1373;22615;-29
2022/12/12 07:36:07;;;;;;;15.00;8.40;;;;;;;-2.57;100.00;98242.97;102030;1356;23080;-31
2022/12/12 07:38:33;;;;;;;17.60;8.10;;;;;;;-2.44;100.00;98237.02;102015;1373;22151;-34
2022/12/12 07:41:03;;;;;;;34.30;13.50;;;;;;;-2.39;100.00;98224.98;102115;1349;22642;-30
2022/12/12 07:43:28;;;;;;;46.40;16.70;;;;;;;-2.38;100.00;98223.27;101882;1376;22597;-31
2022/12/12 07:45:54;;;;;;;;;;;;;;;-2.25;100.00;98224.98;101991;1377;22418;-30
2022/12/12 07:48:19;;;;;;;28.20;12.10;;;;;;;-2.43;100.00;98229.80;101923;1356;22430;-34
2022/12/12 07:50:45;;;;;;;23.70;13.00;;;;;;;-2.28;100.00;98227.78;101936;1358;22713;-34
2022/12/12 07:53:10;;;;;;;43.90;14.70;;;;;;;-2.08;100.00;98229.79;102025;1359;22658;-30
2022/12/12 07:55:38;;;;;;;24.00;11.60;;;;;;;-2.43;100.00;98230.09;101959;1359;22501;-30
2022/12/12 07:58:05;;;;;;;31.50;12.40;;;;;;;-2.37;100.00;98234.77;101717;1349;22641;-30
2022/12/12 08:00:30;;;;;;;33.40;14.40;;;;;;;-2.45;100.00;98235.02;101823;1350;22710;-30
2022/12/12 08:02:56;;;;;;;28.90;14.40;;;;;;;-2.12;100.00;98227.88;101947;1359;22486;-30
2022/12/12 08:05:21;;;;;;;35.60;12.10;;;;;;;-2.12;100.00;98226.33;102014;1356;22423;-30
2022/12/12 08:07:47;;;;;;;44.10;16.30;;;;;;;-2.17;100.00;98225.88;101849;1375;22178;-33
2022/12/12 08:10:13;;;;;;;29.40;14.80;;;;;;;-2.05;100.00;98223.50;102084;1349;22610;-29
2022/12/12 08:12:39;;;;;;;50.40;14.40;;;;;;;-2.19;100.00;98219.96;101712;1356;24382;-36
2022/12/12 08:15:05;;;;;;;18.40;12.30;;;;;;;-2.38;100.00;98231.05;101188;1358;22627;-30
2022/12/12 08:17:31;;;;;;;12.50;6.70;;;;;;;-2.17;100.00;98229.95;102021;1359;22187;-34
2022/12/12 08:19:56;;;;;;;44.10;16.20;;;;;;;-2.08;100.00;98225.23;101987;1356;22281;-34
2022/12/12 08:22:22;;;;;;;22.60;11.70;;;;;;;-2.24;100.00;98228.67;102010;1359;22653;-30
2022/12/12 08:24:48;;;;;;;25.40;11.30;;;;;;;-1.99;100.00;98229.15;101893;1359;22311;-34
2022/12/12 08:27:13;;;;;;;31.70;9.70;;;;;;;-1.85;100.00;98223.42;102035;1374;22260;-30
2022/12/12 08:29:39;;;;;;;25.80;13.20;;;;;;;-2.13;100.00;98226.23;101968;1359;22188;-34
2022/12/12 08:32:04;;;;;;;32.00;13.90;;;;;;;-2.06;100.00;98226.11;101884;1360;22598;-31
2022/12/12 08:34:30;;;;;;;20.20;11.70;;;;;;;-1.96;100.00;98230.97;101893;1359;22200;-35
2022/12/12 08:36:56;;;;;;;31.90;12.70;;;;;;;-1.82;100.00;98229.65;101954;1366;23371;-29
2022/12/12 08:39:21;;;;;;;13.60;7.30;;;;;;;-2.14;100.00;98235.27;101938;1356;22613;-33
2022/12/12 08:41:47;;;;;;;21.50;9.90;;;;;;;-1.88;100.00;98236.30;101915;1359;22573;-29
2022/12/12 08:44:14;;;;;;;19.70;11.00;;;;;;;-1.88;100.00;98239.65;101844;1366;22211;-33
2022/12/12 08:46:40;;;;;;;20.80;8.80;;;;;;;-2.03;100.00;98242.86;102115;1372;22336;-33
2022/12/12 08:49:06;;;;;;;20.20;10.00;;;;;;;-1.87;100.00;98245.81;101861;1365;22662;-29
2022/12/12 08:51:33;;;;;;;21.20;11.00;;;;;;;-2.10;100.00;98245.29;101981;1356;22635;-33
2022/12/12 08:53:58;;;;;;;17.50;13.10;;;;;;;-2.26;100.00;98249.27;101948;1365;22658;-33
2022/12/12 08:56:24;;;;;;;15.30;11.20;;;;;;;-2.08;100.00;98256.77;102005;1356;22698;-29
2022/12/12 08:58:50;;;;;;;10.90;8.10;;;;;;;-2.15;100.00;98256.61;102044;1357;22597;-30
2022/12/12 09:01:19;;;;;;;23.70;11.90;;;;;;;-2.08;100.00;98256.80;102015;1375;22618;-33
2022/12/12 09:03:44;;;;;;;24.10;12.20;;;;;;;-2.12;100.00;98261.55;102020;1362;22633;-33
2022/12/12 09:06:10;;;;;;;15.90;7.90;;;;;;;-2.09;100.00;98261.45;102019;1359;22198;-30
2022/12/12 09:08:36;;;;;;;16.70;7.90;;;;;;;-1.99;100.00;98262.09;101973;1366;22645;-35
2022/12/12 09:11:02;;;;;;;22.70;10.10;;;;;;;-2.03;100.00;98256.47;102003;1372;22569;-29
2022/12/12 09:13:28;;;;;;;20.90;10.60;;;;;;;-1.91;100.00;98253.44;101994;1356;22268;-30
2022/12/12 09:15:54;;;;;;;12.10;7.30;;;;;;;-1.79;100.00;98248.05;102082;1349;22628;-29
2022/12/12 09:18:19;;;;;;;18.30;8.50;;;;;;;-1.55;100.00;98240.55;102004;1359;22641;-34
2022/12/12 09:20:49;;;;;;;14.10;7.90;;;;;;;-1.85;100.00;98240.08;102055;1374;22562;-29
2022/12/12 09:23:15;;;;;;;17.20;8.90;;;;;;;-1.68;100.00;98242.67;101932;1356;22192;-29
2022/12/12 09:25:41;;;;;;;16.30;9.00;;;;;;;-1.64;100.00;98240.35;102012;1362;22608;-30
2022/12/12 09:28:07;;;;;;;11.30;6.10;;;;;;;-1.84;100.00;98241.90;102104;1375;22252;-29
2022/12/12 09:30:32;;;;;;;20.10;10.00;;;;;;;-1.58;100.00;98245.71;102035;1376;22429;-30
2022/12/12 09:32:58;;;;;;;28.30;11.50;;;;;;;-1.73;100.00;98239.50;101978;1375;22684;-31
2022/12/12 09:35:23;;;;;;;23.90;11.70;;;;;;;-1.60;100.00;98244.64;101985;1359;22841;-34
2022/12/12 09:37:49;;;;;;;27.60;11.30;;;;;;;-1.56;100.00;98246.56;101941;1359;22438;-31
2022/12/12 09:40:18;;;;;;;9.60;5.60;;;;;;;-1.38;100.00;98246.59;101932;1367;23307;-34
2022/12/12 09:42:48;;;;;;;14.80;8.10;;;;;;;-1.22;100.00;98240.81;102014;1359;22631;-34
2022/12/12 09:45:14;;;;;;;30.10;13.70;;;;;;;-1.40;100.00;98242.78;102012;1350;23088;-30
2022/12/12 09:47:43;;;;;;;26.20;11.40;;;;;;;-1.35;100.00;98244.55;102087;1372;22651;-31
2022/12/12 09:50:16;;;;;;;21.40;7.70;;;;;;;-1.31;100.00;98242.07;101888;1359;22250;-30
2022/12/12 09:52:41;;;;;;;15.60;6.90;;;;;;;-1.30;100.00;98236.52;101952;1375;22702;-34
2022/12/12 09:55:14;;;;;;;17.40;10.50;;;;;;;-1.34;100.00;98239.85;101970;1350;22288;-31
2022/12/12 09:57:44;;;;;;;12.40;7.80;;;;;;;-1.43;100.00;98241.48;101435;1377;22746;-31
2022/12/12 10:00:12;;;;;;;14.30;8.10;;;;;;;-1.33;100.00;98243.27;102071;1357;22607;-34
2022/12/12 10:02:47;;;;;;;14.70;8.30;;;;;;;-1.30;100.00;98237.21;102058;1356;22272;-34
2022/12/12 10:05:20;;;;;;;22.50;11.00;;;;;;;-1.40;100.00;98240.35;101997;1376;22196;-30
2022/12/12 10:07:55;;;;;;;19.00;8.70;;;;;;;-1.29;100.00;98233.77;102054;1375;22790;-34
2022/12/12 10:10:23;;;;;;;17.70;8.20;;;;;;;-1.15;100.00;98233.64;101981;1375;22508;-34
2022/12/12 10:12:49;;;;;;;17.80;8.60;;;;;;;-1.27;100.00;98239.35;101840;1360;22503;-35
2022/12/12 10:15:22;;;;;;;25.80;11.70;;;;;;;-1.37;100.00;98237.21;102009;1367;22710;-30
2022/12/12 10:17:47;;;;;;;24.00;12.50;;;;;;;-1.35;100.00;98245.30;101922;1371;22243;-30
2022/12/12 10:20:17;;;;;;;21.20;10.10;;;;;;;-1.31;100.00;98241.85;102007;1362;22673;-35
2022/12/12 10:22:45;;;;;;;;;;;;;;;-1.22;100.00;98243.64;101812;1358;22593;-31
2022/12/12 10:25:19;;;;;;;21.20;12.60;;;;;;;-1.21;100.00;98240.67;101828;1356;22684;-35
2022/12/12 10:27:44;;;;;;;;;;;;;;;-1.22;100.00;98244.64;102063;1372;22586;-34
2022/12/12 10:30:15;;;;;;;19.30;10.40;;;;;;;-1.26;100.00;98244.34;101967;1375;22288;-35
2022/12/12 10:32:49;;;;;;;30.80;12.80;;;;;;;-1.19;100.00;98247.23;102031;1376;22641;-34
2022/12/12 10:35:22;;;;;;;;;;;;;;;-1.20;100.00;98251.51;101883;1375;23198;-34
2022/12/12 10:37:48;;;;;;;;;;;;;;;-1.12;100.00;98246.14;101996;1374;23389;-30
2022/12/12 10:40:17;;;;;;;;;;;;;;;-1.12;100.00;98243.02;102017;1356;22630;-30
2022/12/12 10:42:46;;;;;;;;;;;;;;;-1.24;100.00;98243.86;101977;1358;22580;-34
2022/12/12 10:45:17;;;;;;;;;;;;;;;-1.22;100.00;98242.92;102051;1356;22599;-30
2022/12/12 10:47:43;;;;;;;;;;;;;;;-1.18;100.00;98240.92;101944;1356;22618;-31
2022/12/12 10:50:09;;;;;;;;;;;;;;;-0.94;100.00;98241.20;101964;1352;22609;-32
2022/12/12 10:52:34;;;;;;;;;;;;;;;-1.00;100.00;98239.49;102045;1356;22633;-35
2022/12/12 10:55:00;;;;;;;;;;;;;;;-1.03;100.00;98245.29;101980;1356;22612;-33
2022/12/12 10:57:27;;;;;;;;;;;;;;;-0.72;100.00;98244.16;102063;1356;22607;-34
2022/12/12 10:59:53;;;;;;;;;;;;;;;-0.67;100.00;98235.84;101955;1365;22643;-30
2022/12/12 11:02:23;;;;;;;;;;;;;;;-0.70;100.00;98235.42;101926;1360;22694;-30
2022/12/12 11:04:48;;;;;;;;;;;;;;;-0.50;100.00;98231.34;101816;1356;24365;-34
2022/12/12 11:07:17;;;;;;;;;;;;;;;-0.71;100.00;98233.30;101102;1356;22601;-35
2022/12/12 11:09:43;;;;;;;;;;;;;;;-0.56;100.00;98230.88;101998;1356;22614;-35
2022/12/12 11:12:11;;;;;;;;;;;;;;;-0.76;100.00;98233.77;101906;1377;22597;-35
2022/12/12 11:14:38;;;;;;;;;;;;;;;-0.77;100.00;98233.41;101786;1376;22625;-35
2022/12/12 11:17:17;;;;;;;;;;;;;;;-0.90;100.00;98236.81;101852;1356;22637;-31
2022/12/12 11:19:44;;;;;;;;;;;;;;;-1.05;100.00;98243.57;102031;1352;22600;-31
2022/12/12 11:22:09;;;;;;;;;;;;;;;-0.97;100.00;98240.44;101960;1374;22593;-31